createdAt,value
2023-03-21T00:00:45.484Z,8.26
2023-03-21T00:03:22.648Z,8.22
2023-03-21T00:05:53.096Z,8.17
2023-03-21T00:08:23.179Z,8.10
2023-03-21T00:10:58.002Z,8.06
2023-03-21T00:13:31.943Z,8.04
2023-03-21T00:16:10.260Z,8.03
2023-03-21T00:18:54.550Z,8.00
2023-03-21T00:24:16.606Z,7.96
2023-03-21T00:26:45.551Z,7.99
2023-03-21T00:29:14.767Z,8.01
2023-03-21T00:31:43.700Z,7.98
2023-03-21T00:34:14.970Z,7.95
2023-03-21T00:36:43.900Z,7.95
2023-03-21T00:39:17.343Z,7.96
2023-03-21T00:41:46.686Z,7.96
2023-03-21T00:44:15.304Z,7.96
2023-03-21T00:46:57.287Z,7.93
2023-03-21T00:49:34.083Z,7.94
2023-03-21T00:52:15.248Z,7.96
2023-03-21T00:54:48.091Z,7.99
2023-03-21T00:57:20.190Z,7.99
2023-03-21T00:59:48.974Z,7.93
2023-03-21T01:02:22.273Z,7.87
2023-03-21T01:04:54.021Z,7.81
2023-03-21T01:07:22.554Z,7.75
2023-03-21T01:09:51.040Z,7.73
2023-03-21T01:12:20.964Z,7.74
2023-03-21T01:14:49.482Z,7.74
2023-03-21T01:17:18.402Z,7.76
2023-03-21T01:19:52.112Z,7.78
2023-03-21T01:22:21.643Z,7.78
2023-03-21T01:24:55.528Z,7.78
2023-03-21T01:27:30.079Z,7.79
2023-03-21T01:29:59.855Z,7.79
2023-03-21T01:32:29.288Z,7.80
2023-03-21T01:34:58.052Z,7.82
2023-03-21T01:37:26.718Z,7.79
2023-03-21T01:39:56.456Z,7.76
2023-03-21T01:42:27.585Z,7.75
2023-03-21T01:45:00.760Z,7.69
2023-03-21T01:47:40.497Z,7.64
2023-03-21T01:50:32.152Z,7.59
2023-03-21T01:53:15.168Z,7.53
2023-03-21T01:55:43.857Z,7.51
2023-03-21T01:58:27.230Z,7.46
2023-03-21T02:01:27.478Z,7.49
2023-03-21T02:03:56.513Z,7.51
2023-03-21T02:06:50.584Z,7.55
2023-03-21T02:09:43.151Z,7.59
2023-03-21T02:12:18.385Z,7.57
2023-03-21T02:14:49.480Z,7.59
2023-03-21T02:17:54.176Z,7.63
2023-03-21T02:20:48.980Z,7.62
2023-03-21T02:23:46.898Z,7.63
2023-03-21T02:26:43.922Z,7.61
2023-03-21T02:29:35.037Z,7.55
2023-03-21T02:32:22.744Z,7.54
2023-03-21T02:35:13.804Z,7.55
2023-03-21T02:37:55.220Z,7.52
2023-03-21T02:40:37.968Z,7.52
2023-03-21T02:43:22.884Z,7.50
2023-03-21T02:46:00.848Z,7.51
2023-03-21T02:48:48.147Z,7.49
2023-03-21T02:51:23.267Z,7.48
2023-03-21T02:54:23.775Z,7.51
2023-03-21T02:56:51.491Z,7.52
2023-03-21T02:59:35.742Z,7.52
2023-03-21T03:02:07.157Z,7.52
2023-03-21T03:04:37.088Z,7.49
2023-03-21T03:07:25.437Z,7.49
2023-03-21T03:10:11.500Z,7.52
2023-03-21T03:12:52.150Z,7.54
2023-03-21T03:15:35.421Z,7.53
2023-03-21T03:18:19.230Z,7.55
2023-03-21T03:21:00.777Z,7.52
2023-03-21T03:23:37.303Z,7.50
2023-03-21T03:26:12.907Z,7.44
2023-03-21T03:28:46.227Z,7.41
2023-03-21T03:31:25.534Z,7.36
2023-03-21T03:34:04.486Z,7.34
2023-03-21T03:36:39.716Z,7.31
2023-03-21T03:39:16.568Z,7.27
2023-03-21T03:42:10.117Z,7.25
2023-03-21T03:44:43.425Z,7.26
2023-03-21T03:47:32.302Z,7.24
2023-03-21T03:50:08.742Z,7.21
2023-03-21T03:52:53.664Z,7.22
2023-03-21T03:55:26.586Z,7.17
2023-03-21T03:57:56.671Z,7.15
2023-03-21T04:00:26.646Z,7.12
2023-03-21T04:02:55.246Z,7.13
2023-03-21T04:05:26.218Z,7.16
2023-03-21T04:07:55.142Z,7.16
2023-03-21T04:10:30.295Z,7.15
2023-03-21T04:12:58.897Z,7.16
2023-03-21T04:15:35.969Z,7.14
2023-03-21T04:18:12.182Z,7.13
2023-03-21T04:20:40.967Z,7.14
2023-03-21T04:23:11.305Z,7.16
2023-03-21T04:25:47.630Z,7.16
2023-03-21T04:28:24.840Z,7.18
2023-03-21T04:31:19.319Z,7.22
2023-03-21T04:33:59.086Z,7.28
2023-03-21T04:36:32.749Z,7.32
2023-03-21T04:39:04.225Z,7.34
2023-03-21T04:41:37.116Z,7.35
2023-03-21T04:44:06.852Z,7.34
2023-03-21T04:46:37.566Z,7.34
2023-03-21T04:49:07.285Z,7.35
2023-03-21T04:51:38.298Z,7.30
2023-03-21T04:54:12.945Z,7.25
2023-03-21T04:56:42.298Z,7.22
2023-03-21T04:59:13.649Z,7.23
2023-03-21T05:01:44.273Z,7.26
2023-03-21T05:04:15.077Z,7.30
2023-03-21T05:06:45.332Z,7.35
2023-03-21T05:09:14.682Z,7.35
2023-03-21T05:11:43.858Z,7.36
2023-03-21T05:14:18.350Z,7.38
2023-03-21T05:16:52.659Z,7.37
2023-03-21T05:19:34.318Z,7.33
2023-03-21T05:22:05.469Z,7.32
2023-03-21T05:24:36.775Z,7.34
2023-03-21T05:27:05.741Z,7.39
2023-03-21T05:29:41.278Z,7.44
2023-03-21T05:32:11.690Z,7.42
2023-03-21T05:34:40.932Z,7.39
2023-03-21T05:37:09.915Z,7.36
2023-03-21T05:39:45.102Z,7.37
2023-03-21T05:42:20.130Z,7.35
2023-03-21T05:44:48.894Z,7.35
2023-03-21T05:47:19.969Z,7.36
2023-03-21T05:49:49.476Z,7.38
2023-03-21T05:52:18.812Z,7.42
2023-03-21T05:54:47.818Z,7.46
2023-03-21T05:57:18.603Z,7.49
2023-03-21T05:59:53.851Z,7.50
2023-03-21T06:02:23.313Z,7.50
2023-03-21T06:04:52.352Z,7.53
2023-03-21T06:07:25.292Z,7.53
2023-03-21T06:09:54.181Z,7.51
2023-03-21T06:12:23.416Z,7.47
2023-03-21T06:15:16.125Z,7.49
2023-03-21T06:17:57.999Z,7.51
2023-03-21T06:20:27.359Z,7.49
2023-03-21T06:23:00.601Z,7.48
2023-03-21T06:25:32.133Z,7.51
2023-03-21T06:28:00.763Z,7.54
2023-03-21T06:30:30.557Z,7.56
2023-03-21T06:33:06.684Z,7.59
2023-03-21T06:35:35.411Z,7.61
2023-03-21T06:38:05.469Z,7.65
2023-03-21T06:40:34.948Z,7.67
2023-03-21T06:43:04.929Z,7.67
2023-03-21T06:45:33.938Z,7.61
2023-03-21T06:48:02.663Z,7.63
2023-03-21T06:50:52.714Z,7.64
2023-03-21T06:53:26.544Z,7.69
2023-03-21T06:56:16.159Z,7.72
2023-03-21T06:58:46.033Z,7.76
2023-03-21T07:01:27.043Z,7.75
2023-03-21T07:04:05.742Z,7.72
2023-03-21T07:06:35.887Z,7.73
2023-03-21T07:09:06.256Z,7.75
2023-03-21T07:11:36.448Z,7.81
2023-03-21T07:14:06.398Z,7.84
2023-03-21T07:16:35.754Z,7.80
2023-03-21T07:19:06.603Z,7.83
2023-03-21T07:21:35.223Z,7.83
2023-03-21T07:24:07.101Z,7.88
2023-03-21T07:26:37.051Z,7.92
2023-03-21T07:29:05.976Z,7.91
2023-03-21T07:31:36.067Z,7.87
2023-03-21T07:34:05.328Z,7.88
2023-03-21T07:36:34.156Z,7.87
2023-03-21T07:39:03.771Z,7.90
2023-03-21T07:41:32.516Z,7.97
2023-03-21T07:44:15.158Z,8.03
2023-03-21T07:46:44.172Z,8.10
2023-03-21T07:49:14.213Z,8.20
2023-03-21T07:51:43.006Z,8.35
2023-03-21T07:54:13.906Z,8.43
2023-03-21T07:56:42.649Z,8.47
2023-03-21T07:59:12.259Z,8.50
2023-03-21T08:01:40.830Z,8.49
2023-03-21T08:04:09.701Z,8.48
2023-03-21T08:06:39.785Z,8.49
2023-03-21T08:09:08.751Z,8.53
2023-03-21T08:11:37.534Z,8.55
2023-03-21T08:14:06.320Z,8.60
2023-03-21T08:16:38.001Z,8.69
2023-03-21T08:19:06.816Z,8.77
2023-03-21T08:21:35.555Z,8.88
2023-03-21T08:24:04.413Z,8.97
2023-03-21T08:26:33.651Z,9.04
2023-03-21T08:29:02.487Z,9.09
2023-03-21T08:31:33.643Z,9.13
2023-03-21T08:34:02.963Z,9.20
2023-03-21T08:36:31.744Z,9.19
2023-03-21T08:39:04.955Z,9.22
2023-03-21T08:41:34.298Z,9.31
2023-03-21T08:44:04.486Z,9.44
2023-03-21T08:46:33.950Z,9.57
2023-03-21T08:49:02.726Z,9.70
2023-03-21T08:51:33.933Z,9.80
2023-03-21T08:54:02.979Z,9.93
2023-03-21T08:56:31.614Z,9.97
2023-03-21T08:59:02.350Z,9.95
2023-03-21T09:01:33.373Z,9.88
2023-03-21T09:04:03.815Z,9.88
2023-03-21T09:06:33.211Z,9.88
2023-03-21T09:09:02.002Z,9.92
2023-03-21T09:11:30.559Z,9.97
2023-03-21T09:14:00.285Z,9.97
2023-03-21T09:16:29.275Z,9.91
2023-03-21T09:18:58.727Z,9.88
2023-03-21T09:21:27.752Z,9.92
2023-03-21T09:23:59.366Z,9.95
2023-03-21T09:26:28.115Z,9.97
2023-03-21T09:28:58.187Z,9.93
2023-03-21T09:31:28.315Z,9.97
2023-03-21T09:33:57.508Z,10.03
2023-03-21T09:36:26.701Z,10.02
2023-03-21T09:38:56.640Z,9.98
2023-03-21T09:41:39.317Z,9.94
2023-03-21T09:44:26.014Z,9.90
2023-03-21T09:47:03.438Z,9.84
2023-03-21T09:49:34.827Z,9.75
2023-03-21T09:52:11.891Z,9.76
2023-03-21T09:54:44.187Z,9.70
2023-03-21T09:57:22.701Z,9.60
2023-03-21T09:59:54.194Z,9.51
2023-03-21T10:02:36.810Z,9.47
2023-03-21T10:05:17.524Z,9.46
2023-03-21T10:07:54.971Z,9.44
2023-03-21T10:10:27.812Z,9.46
2023-03-21T10:12:57.320Z,9.49
2023-03-21T10:15:27.125Z,9.47
2023-03-21T10:18:00.397Z,9.46
2023-03-21T10:20:31.833Z,9.49
2023-03-21T10:23:06.212Z,9.48
2023-03-21T10:25:38.162Z,9.43
2023-03-21T10:28:15.914Z,9.38
2023-03-21T10:30:47.131Z,9.40
2023-03-21T10:33:20.265Z,9.48
2023-03-21T10:35:53.208Z,9.53
2023-03-21T10:38:24.945Z,9.49
2023-03-21T10:40:54.295Z,9.51
2023-03-21T10:43:37.341Z,9.50
2023-03-21T10:46:13.872Z,9.39
2023-03-21T10:48:46.350Z,9.36
2023-03-21T10:51:20.930Z,9.39
2023-03-21T10:53:55.033Z,9.44
2023-03-21T10:56:28.004Z,9.53
2023-03-21T10:58:59.794Z,9.57
2023-03-21T11:01:34.197Z,9.58
2023-03-21T11:04:10.047Z,9.51
2023-03-21T11:06:43.103Z,9.40
2023-03-21T11:09:16.669Z,9.37
2023-03-21T11:11:53.006Z,9.40
2023-03-21T11:14:32.464Z,9.46
2023-03-21T11:17:07.521Z,9.53
2023-03-21T11:19:36.886Z,9.68
2023-03-21T11:22:07.897Z,9.85
2023-03-21T11:24:37.146Z,10.14
2023-03-21T11:27:08.245Z,10.51
2023-03-21T11:29:39.921Z,10.85
2023-03-21T11:32:19.497Z,11.10
2023-03-21T11:34:50.275Z,11.31
2023-03-21T11:37:26.944Z,11.34
2023-03-21T11:40:06.225Z,11.33
2023-03-21T11:42:42.760Z,11.32
2023-03-21T11:45:17.539Z,11.16
2023-03-21T11:47:47.323Z,10.94
2023-03-21T11:50:26.532Z,10.79
2023-03-21T11:53:10.009Z,10.72
2023-03-21T11:55:49.508Z,10.65
2023-03-21T11:58:32.001Z,10.64
2023-03-21T12:01:09.676Z,10.52
2023-03-21T12:04:03.070Z,10.42
2023-03-21T12:06:37.018Z,10.40
2023-03-21T12:09:26.895Z,10.39
2023-03-21T12:12:09.844Z,10.30
2023-03-21T12:14:51.350Z,10.26
2023-03-21T12:17:32.448Z,10.28
2023-03-21T12:20:18.192Z,10.31
2023-03-21T12:22:57.329Z,10.37
2023-03-21T12:25:31.396Z,10.36
2023-03-21T12:28:15.252Z,10.38
2023-03-21T12:30:53.898Z,10.38
2023-03-21T12:33:37.329Z,10.42
2023-03-21T12:36:17.914Z,10.49
2023-03-21T12:38:57.334Z,10.49
2023-03-21T12:41:33.128Z,10.44
2023-03-21T12:44:05.220Z,10.42
2023-03-21T12:46:39.921Z,10.45
2023-03-21T12:49:15.573Z,10.45
2023-03-21T12:51:47.634Z,10.50
2023-03-21T12:54:26.791Z,10.56
2023-03-21T12:57:02.233Z,10.63
2023-03-21T12:59:37.823Z,10.67
2023-03-21T13:02:18.793Z,10.62
2023-03-21T13:04:59.426Z,10.55
2023-03-21T13:07:34.185Z,10.48
2023-03-21T13:10:13.081Z,10.46
2023-03-21T13:13:12.851Z,10.47
2023-03-21T13:15:59.902Z,10.51
2023-03-21T13:18:47.237Z,10.55
2023-03-21T13:21:21.602Z,10.64
2023-03-21T13:24:03.214Z,10.70
2023-03-21T13:26:40.110Z,10.80
2023-03-21T13:29:23.676Z,10.93
2023-03-21T13:31:57.866Z,11.04
2023-03-21T13:34:26.901Z,11.19
2023-03-21T13:36:58.061Z,11.33
2023-03-21T13:39:32.533Z,11.40
2023-03-21T13:42:17.173Z,11.43
2023-03-21T13:44:50.604Z,11.30
2023-03-21T13:47:38.304Z,11.12
2023-03-21T13:50:33.642Z,11.00
2023-03-21T13:53:29.906Z,10.89
2023-03-21T13:56:09.216Z,10.88
2023-03-21T13:58:50.145Z,10.89
2023-03-21T14:01:31.783Z,10.89
2023-03-21T14:04:10.320Z,10.88
2023-03-21T14:06:47.454Z,10.87
2023-03-21T14:09:23.064Z,10.83
2023-03-21T14:11:56.517Z,10.81
2023-03-21T14:14:36.162Z,10.83
2023-03-21T14:17:13.940Z,10.86
2023-03-21T14:19:43.806Z,10.86
2023-03-21T14:22:14.198Z,10.80
2023-03-21T14:24:48.405Z,10.73
2023-03-21T14:27:17.910Z,10.68
2023-03-21T14:29:48.296Z,10.65
2023-03-21T14:32:23.079Z,10.65
2023-03-21T14:34:52.581Z,10.67
2023-03-21T14:37:33.642Z,10.71
2023-03-21T14:40:08.651Z,10.73
2023-03-21T14:42:38.425Z,10.69
2023-03-21T14:45:20.963Z,10.68
2023-03-21T14:48:00.647Z,10.71
2023-03-21T14:50:38.521Z,10.72
2023-03-21T14:53:12.387Z,10.71
2023-03-21T14:55:46.101Z,10.69
2023-03-21T14:58:17.413Z,10.59
2023-03-21T15:00:49.987Z,10.49
2023-03-21T15:03:21.775Z,10.41
2023-03-21T15:05:50.562Z,10.35
2023-03-21T15:08:21.411Z,10.31
2023-03-21T15:11:06.322Z,10.26
2023-03-21T15:13:40.150Z,10.21
2023-03-21T15:16:14.242Z,10.14
2023-03-21T15:18:44.725Z,10.07
2023-03-21T15:21:21.524Z,10.01
2023-03-21T15:23:55.818Z,9.96
2023-03-21T15:26:26.650Z,9.92
2023-03-21T15:28:58.707Z,9.93
2023-03-21T15:31:31.714Z,9.94
2023-03-21T15:34:04.292Z,9.93
2023-03-21T15:36:37.109Z,9.86
2023-03-21T15:39:08.944Z,9.82
2023-03-21T15:41:37.731Z,9.79
2023-03-21T15:44:14.308Z,9.76
2023-03-21T15:46:45.745Z,9.73
2023-03-21T15:49:27.130Z,9.64
2023-03-21T15:52:02.742Z,9.58
2023-03-21T15:54:33.804Z,9.54
2023-03-21T15:57:08.757Z,9.50
2023-03-21T15:59:41.733Z,9.41
2023-03-21T16:02:18.845Z,9.34
2023-03-21T16:04:58.622Z,9.27
2023-03-21T16:07:27.337Z,9.17
2023-03-21T16:10:01.125Z,9.09
2023-03-21T16:12:30.310Z,9.03
2023-03-21T16:14:59.208Z,8.98
2023-03-21T16:17:35.812Z,8.94
2023-03-21T16:20:20.162Z,8.88
2023-03-21T16:22:49.224Z,8.83
2023-03-21T16:25:18.505Z,8.82
2023-03-21T16:27:49.092Z,8.81
2023-03-21T16:30:21.163Z,8.82
2023-03-21T16:32:50.587Z,8.80
2023-03-21T16:35:23.326Z,8.78
2023-03-21T16:37:52.428Z,8.73
2023-03-21T16:40:29.950Z,8.65
2023-03-21T16:42:58.961Z,8.51
2023-03-21T16:45:30.241Z,8.35
2023-03-21T16:47:59.812Z,8.18
2023-03-21T16:50:32.587Z,7.96
2023-03-21T16:53:01.767Z,7.84
2023-03-21T16:55:33.040Z,7.82
2023-03-21T16:58:02.871Z,7.80
2023-03-21T17:00:32.296Z,7.79
2023-03-21T17:03:08.776Z,7.78
2023-03-21T17:05:43.352Z,7.70
2023-03-21T17:08:18.263Z,7.66
2023-03-21T17:10:47.225Z,7.61
2023-03-21T17:13:16.101Z,7.43
2023-03-21T17:15:45.184Z,7.11
2023-03-21T17:18:14.816Z,6.83
2023-03-21T17:20:43.779Z,6.57
2023-03-21T17:23:15.862Z,6.34
2023-03-21T17:25:44.914Z,6.18
2023-03-21T17:28:15.031Z,6.03
2023-03-21T17:30:44.395Z,5.92
2023-03-21T17:33:15.337Z,5.81
2023-03-21T17:35:44.181Z,5.76
2023-03-21T17:38:16.832Z,5.72
2023-03-21T17:40:45.579Z,5.75
2023-03-21T17:43:21.137Z,5.85
2023-03-21T17:45:51.573Z,5.86
2023-03-21T17:48:21.314Z,5.81
2023-03-21T17:50:50.684Z,5.75
2023-03-21T17:53:19.570Z,5.60
2023-03-21T17:55:48.467Z,5.45
2023-03-21T17:58:17.557Z,5.35
2023-03-21T18:00:46.697Z,5.34
2023-03-21T18:03:17.210Z,5.34
2023-03-21T18:05:47.126Z,5.26
2023-03-21T18:08:15.927Z,5.13
2023-03-21T18:10:45.586Z,5.01
2023-03-21T18:13:16.560Z,4.89
2023-03-21T18:15:46.708Z,4.92
2023-03-21T18:18:16.664Z,5.01
2023-03-21T18:20:53.652Z,5.08
2023-03-21T18:23:23.258Z,5.06
2023-03-21T18:25:52.579Z,4.92
2023-03-21T18:28:22.322Z,4.76
2023-03-21T18:31:17.421Z,4.59
2023-03-21T18:33:46.451Z,4.41
2023-03-21T18:36:24.093Z,4.30
2023-03-21T18:38:54.835Z,4.19
2023-03-21T18:41:25.407Z,4.12
2023-03-21T18:44:09.525Z,4.05
2023-03-21T18:46:46.527Z,3.98
2023-03-21T18:49:58.797Z,3.91
2023-03-21T18:52:05.684Z,3.90
2023-03-21T18:54:35.922Z,3.95
2023-03-21T18:57:35.870Z,4.06
2023-03-21T18:59:54.448Z,4.16
2023-03-21T19:02:23.238Z,4.25
2023-03-21T19:04:52.169Z,4.32
2023-03-21T19:07:21.322Z,4.40
2023-03-21T19:10:17.456Z,4.47
2023-03-21T19:12:40.925Z,4.47
2023-03-21T19:15:12.765Z,4.44
2023-03-21T19:20:29.814Z,4.38
2023-03-21T19:22:58.445Z,4.16
2023-03-21T19:25:27.254Z,4.04
2023-03-21T19:27:56.480Z,3.92
2023-03-21T19:30:25.311Z,3.78
2023-03-21T19:32:53.879Z,3.65
2023-03-21T19:35:22.508Z,3.53
2023-03-21T19:37:51.147Z,3.49
2023-03-21T19:40:21.089Z,3.50
2023-03-21T19:42:50.091Z,3.46
2023-03-21T19:45:22.362Z,3.37
2023-03-21T19:47:50.985Z,3.28
2023-03-21T19:50:55.313Z,3.34
2023-03-21T19:53:09.109Z,3.45
2023-03-21T19:55:37.779Z,3.45
2023-03-21T19:58:08.707Z,3.43
2023-03-21T20:00:38.771Z,3.47
2023-03-21T20:03:10.431Z,3.49
2023-03-21T20:05:40.951Z,3.47
2023-03-21T20:08:10.987Z,3.38
2023-03-21T20:10:41.019Z,3.34
2023-03-21T20:13:12.059Z,3.28
2023-03-21T20:15:47.901Z,3.30
2023-03-21T20:18:17.115Z,3.34
2023-03-21T20:20:46.294Z,3.36
2023-03-21T20:23:20.580Z,3.38
2023-03-21T20:25:49.469Z,3.37
2023-03-21T20:28:25.624Z,3.30
2023-03-21T20:30:57.753Z,3.27
2023-03-21T20:33:27.423Z,3.29
2023-03-21T20:36:37.696Z,3.20
2023-03-21T20:38:47.582Z,3.03
2023-03-21T20:41:16.641Z,2.87
2023-03-21T20:46:38.365Z,2.77
2023-03-21T20:49:06.984Z,2.61
2023-03-21T20:54:23.838Z,2.49
2023-03-21T20:56:53.662Z,2.49
2023-03-21T20:59:29.918Z,2.57
2023-03-21T21:01:59.593Z,2.64
2023-03-21T21:05:11.846Z,2.62
2023-03-21T21:07:21.365Z,2.61
2023-03-21T21:09:50.584Z,2.68
2023-03-21T21:12:26.908Z,2.73
2023-03-21T21:14:56.385Z,2.70
2023-03-21T21:20:17.137Z,2.50
2023-03-21T21:22:58.946Z,2.45
2023-03-21T21:25:28.937Z,2.48
2023-03-21T21:27:57.551Z,2.41
2023-03-21T21:30:26.803Z,2.28
2023-03-21T21:32:58.807Z,2.20
2023-03-21T21:35:27.724Z,2.15
2023-03-21T21:37:56.426Z,2.10
2023-03-21T21:40:27.254Z,2.10
2023-03-21T21:42:57.067Z,2.20
2023-03-21T21:45:27.545Z,2.29
2023-03-21T21:47:56.924Z,2.37
2023-03-21T21:50:26.056Z,2.45
2023-03-21T21:52:55.770Z,2.48
2023-03-21T21:55:26.298Z,2.43
2023-03-21T21:57:57.859Z,2.32
2023-03-21T22:00:28.275Z,2.27
2023-03-21T22:02:58.218Z,2.10
2023-03-21T22:05:29.466Z,1.93
2023-03-21T22:07:58.104Z,1.85
2023-03-21T22:10:27.411Z,1.83
2023-03-21T22:12:59.526Z,1.77
2023-03-21T22:15:28.247Z,1.75
2023-03-21T22:17:56.805Z,1.81
2023-03-21T22:20:27.689Z,1.86
2023-03-21T22:22:59.008Z,1.83
2023-03-21T22:25:28.454Z,1.84
2023-03-21T22:27:57.083Z,1.80
2023-03-21T22:30:25.763Z,1.86
2023-03-21T22:33:08.475Z,1.89
2023-03-21T22:35:38.043Z,1.88
2023-03-21T22:38:07.118Z,1.84
2023-03-21T22:40:37.513Z,1.75
2023-03-21T22:43:09.835Z,1.69
2023-03-21T22:45:38.523Z,1.61
2023-03-21T22:48:07.888Z,1.52
2023-03-21T22:50:36.922Z,1.46
2023-03-21T22:53:06.063Z,1.44
2023-03-21T22:55:35.424Z,1.45
2023-03-21T22:58:04.204Z,1.44
2023-03-21T23:00:37.783Z,1.41
2023-03-21T23:03:07.119Z,1.42
2023-03-21T23:05:40.608Z,1.47
2023-03-21T23:08:09.609Z,1.47
2023-03-21T23:10:40.242Z,1.37
2023-03-21T23:13:09.047Z,1.32
2023-03-21T23:15:39.574Z,1.35
2023-03-21T23:18:08.716Z,1.32
2023-03-21T23:20:40.412Z,1.24
2023-03-21T23:23:09.322Z,1.20
2023-03-21T23:25:42.334Z,1.12
2023-03-21T23:28:11.980Z,1.00
2023-03-21T23:30:41.105Z,0.90
2023-03-21T23:33:10.009Z,0.84
2023-03-21T23:35:40.807Z,0.83
2023-03-21T23:38:09.407Z,0.90
2023-03-21T23:40:39.993Z,1.01
2023-03-21T23:43:10.163Z,1.10
2023-03-21T23:45:39.316Z,1.19
2023-03-21T23:48:08.303Z,1.20
2023-03-21T23:50:44.786Z,1.09
2023-03-21T23:53:14.990Z,0.98
2023-03-21T23:55:46.073Z,0.90
2023-03-21T23:58:14.627Z,0.85
